Aeroporto :







RITROVATECI SU...

 
LOGIN :

Iscrizione | Disclaimer

   EN    FR    IT 

 









Sommario :    VFR   VFR Marginale   IFR   IFR Intensivo   IFR Molto Intensivo
Visibilità : 
Base nubi : 
>= 8 km
>= 3000ft
5 / 8 km
1000 / 3000 ft
1500m / 5 km
500 / 1000 ft
800 / 1500m
200 / 500 ft
< 800m
< 200 ft
Simboli :   Temporali  Nebbia  Neve Forte  Precipitazioni Forti  Vento > 20 kt






- Altitudine del aeroporto : 54 ft
- Codice IATA : BEL


SBBE - Val de Cans Int.

ULTIMO METAR :
  • 271600Z 10005KT 9999 SCT035 32/23 Q1012

METARs OBSOLETI :
  • 271500Z 14006KT 9999 SCT030 32/23 Q1013
  • 271400Z 10009KT 9999 FEW025 31/23 Q1014

TAF TAF SBBE
Valido dal 27 a 12 ore il 28 a 12 ore UTC


270900Z 2712/2812 09007KT 9999 FEW020 TX32/2718Z TN24/2809Z
BECMG 2713/2715 15005KT SCT040 FEW045TCU
BECMG 2717/2719 01008KT
BECMG 2721/2723 10005KT CAVOK RMK PDY
FIR SBAZ / Sudamerica



MetMap, La meteo Aeronautica in un colpo d'occhio ! - Copyright ORBIFLY Dicembre 2007 - Disclaimer

ORBIFLY MET'MAP TEAM :

Programmazione e sviluppo : Alexandra Zaïnal
Concezione : Baudouin d'Aumeries
Aiuto per la programmazione : Marc-Olivier Méhu
Supporto tecnico e logistico : Manuel Goepfert
Aiuto per la traduzione : Arnaldo La Scala

Contatto : metmap@orbifly.com




FONTI E CREDITI :

   NOAA